Time;durP1;ratioP1;P1;durP2;ratioP2;P2;SDS_P1;SDS_P2;PMS_P1;PMS_P2;Temp;Humidity;BMP_temperature;BMP_pressure;BME280_temperature;BME280_humidity;BME280_pressure;Samples;Min_cycle;Max_cycle;Signal;HPM_P1;HPM_P2
2021/03/15 00:00:46;;;;;;;1.53;0.70;;;-1.30;44.80;;;;;;4341593;33;20075;-35
2021/03/15 00:03:12;;;;;;;1.50;0.50;;;-1.30;44.70;;;;;;4341493;33;20610;-35
2021/03/15 00:05:39;;;;;;;2.13;0.60;;;-1.30;44.80;;;;;;4328553;33;20081;-35
2021/03/15 00:08:06;;;;;;;2.23;0.50;;;-1.30;44.80;;;;;;4341049;33;20069;-35
2021/03/15 00:10:33;;;;;;;3.20;0.30;;;-1.30;44.70;;;;;;4343809;32;20071;-37
2021/03/15 00:13:00;;;;;;;1.73;0.50;;;-1.30;44.70;;;;;;4341247;33;20065;-36
2021/03/15 00:15:26;;;;;;;7.70;0.80;;;-1.30;44.50;;;;;;4340911;33;20079;-36
2021/03/15 00:17:53;;;;;;;2.33;0.73;;;-1.30;44.40;;;;;;4316778;33;20102;-35
2021/03/15 00:20:20;;;;;;;0.87;0.40;;;-1.30;44.20;;;;;;4340864;33;20065;-35
2021/03/15 00:22:47;;;;;;;2.23;0.60;;;-1.20;44.10;;;;;;4316551;33;20071;-36
2021/03/15 00:25:14;;;;;;;0.90;0.30;;;-1.30;44.00;;;;;;4316891;33;20086;-36
2021/03/15 00:27:42;;;;;;;2.00;0.50;;;-1.30;44.00;;;;;;4316837;33;20167;-36
2021/03/15 00:30:10;;;;;;;2.33;0.70;;;-1.30;44.30;;;;;;4366503;32;20097;-36
2021/03/15 00:32:37;;;;;;;5.07;0.70;;;-1.30;44.30;;;;;;4355692;32;20067;-35
2021/03/15 00:35:08;;;;;;;1.70;0.50;;;-1.30;44.10;;;;;;4328539;33;20063;-38
2021/03/15 00:37:35;;;;;;;1.77;0.70;;;-1.30;44.10;;;;;;4328481;33;20070;-36
2021/03/15 00:40:04;;;;;;;0.67;0.50;;;-1.30;44.00;;;;;;4329335;33;20074;-36
2021/03/15 00:42:30;;;;;;;1.57;0.47;;;-1.20;43.90;;;;;;4328861;33;20086;-36
2021/03/15 00:44:57;;;;;;;1.63;0.60;;;-1.20;43.80;;;;;;4328351;33;20093;-36
2021/03/15 00:47:23;;;;;;;0.23;0.20;;;-1.20;43.50;;;;;;4316441;33;20070;-36
2021/03/15 00:49:50;;;;;;;2.83;0.50;;;-1.20;43.40;;;;;;4344392;32;20522;-37
2021/03/15 00:52:16;;;;;;;3.47;0.50;;;-1.20;43.50;;;;;;4330799;32;20589;-36
2021/03/15 00:54:43;;;;;;;0.70;0.27;;;-1.10;44.10;;;;;;4328197;33;20097;-36
2021/03/15 00:57:09;;;;;;;1.00;0.47;;;-1.10;43.40;;;;;;4340873;33;20069;-35
2021/03/15 00:59:36;;;;;;;1.97;0.50;;;-1.20;43.30;;;;;;4340715;33;20074;-35
2021/03/15 01:02:03;;;;;;;3.00;0.60;;;-1.20;43.40;;;;;;4285088;33;20621;-35
2021/03/15 01:04:30;;;;;;;1.57;0.40;;;-1.20;43.40;;;;;;4296551;33;20087;-37
2021/03/15 01:06:56;;;;;;;1.70;0.80;;;-1.20;43.50;;;;;;4296817;33;20196;-35
2021/03/15 01:09:23;;;;;;;2.70;0.60;;;-1.20;43.70;;;;;;4291789;33;20159;-36
2021/03/15 01:11:49;;;;;;;3.27;0.80;;;-1.20;43.80;;;;;;4290657;33;20581;-36
2021/03/15 01:14:16;;;;;;;9.33;1.00;;;-1.30;43.70;;;;;;4285002;33;20072;-35
2021/03/15 01:16:42;;;;;;;1.77;1.03;;;-1.30;43.90;;;;;;4285066;33;20171;-36
2021/03/15 01:19:09;;;;;;;3.47;1.30;;;-1.30;44.00;;;;;;4270808;33;20084;-35
2021/03/15 01:21:36;;;;;;;1.67;0.63;;;-1.30;44.00;;;;;;4259460;33;20140;-35
2021/03/15 01:24:02;;;;;;;1.37;0.47;;;-1.30;44.00;;;;;;4259443;33;20091;-36
2021/03/15 01:26:29;;;;;;;2.77;0.80;;;-1.40;44.00;;;;;;4282928;33;20141;-36
2021/03/15 01:28:55;;;;;;;2.50;0.80;;;-1.30;44.00;;;;;;4285559;33;20106;-35
2021/03/15 01:31:22;;;;;;;4.20;0.87;;;-1.30;44.00;;;;;;4285279;33;20643;-35
2021/03/15 01:33:48;;;;;;;3.80;1.10;;;-1.30;44.00;;;;;;4320435;33;20082;-36
2021/03/15 01:36:15;;;;;;;4.80;0.80;;;-1.30;44.00;;;;;;4316271;33;20078;-36
2021/03/15 01:38:41;;;;;;;2.80;0.60;;;-1.30;44.00;;;;;;4313381;33;20136;-37
2021/03/15 01:41:08;;;;;;;0.57;0.47;;;-1.20;44.10;;;;;;4313642;33;20157;-36
2021/03/15 01:43:36;;;;;;;0.80;0.50;;;-1.20;44.10;;;;;;4313861;33;20100;-37
2021/03/15 01:46:02;;;;;;;2.97;0.73;;;-1.20;44.10;;;;;;4313423;33;20170;-36
2021/03/15 01:48:29;;;;;;;3.03;0.90;;;-1.20;44.10;;;;;;4313375;33;20546;-36
2021/03/15 01:50:56;;;;;;;3.83;0.57;;;-1.20;44.10;;;;;;4321167;32;20063;-36
2021/03/15 01:53:22;;;;;;;1.43;0.67;;;-1.20;44.20;;;;;;4358043;32;20082;-36
2021/03/15 01:55:50;;;;;;;1.97;0.47;;;-1.10;44.40;;;;;;4345578;32;20518;-36
2021/03/15 01:58:16;;;;;;;1.10;0.70;;;-1.10;44.10;;;;;;4345717;32;20102;-36
2021/03/15 02:00:44;;;;;;;0.87;0.57;;;-1.10;44.10;;;;;;4345442;32;20154;-37
2021/03/15 02:03:11;;;;;;;2.47;0.77;;;-1.00;44.00;;;;;;4333488;32;20578;-37
2021/03/15 02:05:40;;;;;;;1.20;0.60;;;-1.00;43.80;;;;;;4357809;32;20061;-37
2021/03/15 02:08:07;;;;;;;3.10;0.77;;;-1.00;43.70;;;;;;4345958;32;20553;-36
2021/03/15 02:10:37;;;;;;;10.37;1.10;;;-0.90;43.70;;;;;;4386574;32;20062;-35
2021/03/15 02:13:37;;;;;;;5.27;2.07;;;-0.90;43.50;;;;;;4390861;32;20216;-36
2021/03/15 02:16:42;;;;;;;3.93;0.70;;;-0.90;43.30;;;;;;4395110;32;20057;-36
2021/03/15 02:19:33;;;;;;;3.07;0.73;;;-0.90;43.40;;;;;;4390435;32;20080;-35
2021/03/15 02:22:32;;;;;;;1.57;0.77;;;-0.90;43.40;;;;;;4405136;32;20089;-35
2021/03/15 02:25:23;;;;;;;2.60;0.77;;;-0.90;43.40;;;;;;4392810;32;20065;-35
2021/03/15 02:28:22;;;;;;;1.53;0.70;;;-0.80;43.40;;;;;;4391946;32;20521;-35
2021/03/15 02:31:19;;;;;;;3.30;0.80;;;-0.80;43.40;;;;;;4376833;32;20065;-35
2021/03/15 02:34:35;;;;;;;3.50;0.70;;;-0.80;43.40;;;;;;4390022;32;20065;-36
2021/03/15 02:37:05;;;;;;;4.28;0.60;;;-0.80;43.60;;;;;;4388088;32;20094;-35
2021/03/15 02:39:40;;;;;;;3.53;0.93;;;-0.80;43.70;;;;;;4389590;32;20081;-36
2021/03/15 02:42:11;;;;;;;1.77;0.70;;;-0.80;43.70;;;;;;4376088;32;20084;-36
2021/03/15 02:44:38;;;;;;;4.07;1.43;;;-0.70;43.60;;;;;;4345251;32;20061;-35
2021/03/15 02:47:11;;;;;;;2.33;0.60;;;-0.70;43.50;;;;;;4344448;32;20079;-36
2021/03/15 02:49:37;;;;;;;3.40;1.17;;;-0.70;43.40;;;;;;4345368;32;20181;-36
2021/03/15 02:52:05;;;;;;;3.03;1.17;;;-0.70;43.30;;;;;;4332411;32;20082;-37
2021/03/15 02:54:31;;;;;;;5.47;0.70;;;-0.70;43.20;;;;;;4344976;32;20067;-36
2021/03/15 02:56:58;;;;;;;1.57;0.70;;;-0.70;43.20;;;;;;4344441;32;20169;-37
2021/03/15 02:59:24;;;;;;;3.77;1.27;;;-0.60;43.20;;;;;;4329486;33;20511;-36
2021/03/15 03:01:51;;;;;;;2.83;0.80;;;-0.60;43.10;;;;;;4329678;33;20106;-37
2021/03/15 03:04:17;;;;;;;2.27;1.17;;;-0.60;43.00;;;;;;4329905;33;20071;-38
2021/03/15 03:06:44;;;;;;;3.80;1.00;;;-0.60;42.70;;;;;;4329915;33;20065;-36
2021/03/15 03:09:14;;;;;;;3.17;0.63;;;-0.60;42.60;;;;;;4285454;33;20064;-35
2021/03/15 03:11:40;;;;;;;1.80;0.50;;;-0.50;42.50;;;;;;4298034;33;20141;-35
2021/03/15 03:14:08;;;;;;;3.07;1.13;;;-0.50;42.20;;;;;;4280973;33;20087;-36
2021/03/15 03:16:37;;;;;;;4.10;1.40;;;-0.50;42.30;;;;;;4256960;33;20080;-36
2021/03/15 03:19:04;;;;;;;3.80;1.47;;;-0.50;42.10;;;;;;4256761;33;20235;-36
2021/03/15 03:21:30;;;;;;;2.97;0.90;;;-0.40;42.20;;;;;;4265018;33;20578;-35
2021/03/15 03:23:57;;;;;;;2.63;0.60;;;-0.40;42.10;;;;;;4298090;33;20177;-36
2021/03/15 03:26:25;;;;;;;3.13;1.70;;;-0.40;41.90;;;;;;4285583;33;20115;-37
2021/03/15 03:28:52;;;;;;;2.90;0.70;;;-0.30;42.00;;;;;;4286063;33;20134;-36
2021/03/15 03:31:20;;;;;;;1.97;1.07;;;-0.20;42.00;;;;;;4285620;33;20075;-37
2021/03/15 03:33:48;;;;;;;4.00;0.80;;;-0.20;41.80;;;;;;4285819;33;20155;-36
2021/03/15 03:36:15;;;;;;;2.97;1.03;;;-0.10;41.70;;;;;;4303854;33;20060;-38
2021/03/15 03:38:42;;;;;;;2.03;0.80;;;-0.10;41.50;;;;;;4326815;33;20075;-37
2021/03/15 03:41:10;;;;;;;5.03;1.00;;;-0.10;41.40;;;;;;4316183;33;20109;-35
2021/03/15 03:43:37;;;;;;;6.43;0.83;;;-0.10;41.50;;;;;;4317435;33;20102;-37
2021/03/15 03:46:05;;;;;;;3.33;1.00;;;-0.10;41.40;;;;;;4341709;33;20078;-36
2021/03/15 03:48:34;;;;;;;2.40;0.83;;;-0.10;41.00;;;;;;4329827;33;20679;-37
2021/03/15 03:51:04;;;;;;;1.83;0.57;;;-0.10;40.90;;;;;;4340107;32;20546;-35
2021/03/15 03:53:59;;;;;;;5.73;1.17;;;-0.20;41.10;;;;;;4374138;32;20569;-36
2021/03/15 03:56:34;;;;;;;3.50;0.83;;;-0.20;41.30;;;;;;4350698;32;20065;-35
2021/03/15 03:59:00;;;;;;;;;;;-0.30;41.10;;;;;;4361103;32;20073;-37
2021/03/15 04:01:39;;;;;;;2.80;1.03;;;-0.30;41.20;;;;;;4372236;32;20442;-37
2021/03/15 04:04:05;;;;;;;5.20;1.00;;;-0.30;41.20;;;;;;4360054;32;20097;-36
2021/03/15 04:06:34;;;;;;;2.17;0.97;;;-0.30;41.20;;;;;;4372092;32;20558;-37
2021/03/15 04:09:04;;;;;;;5.23;1.33;;;-0.30;41.10;;;;;;4379261;32;20525;-37
2021/03/15 04:11:31;;;;;;;2.73;1.23;;;-0.30;41.10;;;;;;4388441;32;20069;-37
2021/03/15 04:13:58;;;;;;;4.53;1.20;;;-0.30;40.90;;;;;;4387439;32;20078;-37
2021/03/15 04:16:35;;;;;;;3.87;0.83;;;-0.30;40.80;;;;;;4362579;32;20057;-37
2021/03/15 04:19:04;;;;;;;4.13;1.83;;;-0.30;40.80;;;;;;4387374;32;20508;-37
2021/03/15 04:21:31;;;;;;;3.03;0.83;;;-0.30;40.70;;;;;;4387135;32;20546;-37
2021/03/15 04:23:58;;;;;;;3.50;1.07;;;-0.30;40.70;;;;;;4330890;32;20134;-37
2021/03/15 04:26:25;;;;;;;2.97;0.80;;;-0.20;40.80;;;;;;4356302;32;20098;-37
2021/03/15 04:28:53;;;;;;;3.83;0.60;;;-0.10;40.80;;;;;;4331273;32;20078;-36
2021/03/15 04:31:20;;;;;;;11.57;1.80;;;-0.10;40.80;;;;;;4331671;32;20059;-36
2021/03/15 04:33:47;;;;;;;3.53;1.20;;;0.00;40.80;;;;;;4343911;32;20150;-37
2021/03/15 04:36:14;;;;;;;2.40;0.80;;;0.10;40.70;;;;;;4332509;32;20538;-37
2021/03/15 04:38:41;;;;;;;3.67;0.83;;;0.30;40.50;;;;;;4343356;32;20069;-37
2021/03/15 04:41:08;;;;;;;4.10;0.80;;;0.30;40.20;;;;;;4319638;32;20117;-36
2021/03/15 04:43:38;;;;;;;2.10;0.60;;;0.50;39.90;;;;;;4332769;32;20066;-36
2021/03/15 04:46:08;;;;;;;2.67;1.13;;;0.50;39.60;;;;;;4359356;32;20079;-37
2021/03/15 04:48:36;;;;;;;6.70;0.77;;;0.60;39.30;;;;;;4346947;32;20054;-37
2021/03/15 04:51:06;;;;;;;2.93;0.83;;;0.70;39.00;;;;;;4322748;32;20074;-37
2021/03/15 04:53:34;;;;;;;8.53;1.80;;;0.80;39.00;;;;;;4331253;33;20151;-36
2021/03/15 04:56:03;;;;;;;1.87;0.50;;;0.90;39.00;;;;;;4331347;33;20136;-37
2021/03/15 04:58:30;;;;;;;8.10;0.73;;;1.10;39.10;;;;;;4331827;33;20102;-38
2021/03/15 05:00:58;;;;;;;3.13;0.57;;;1.30;39.40;;;;;;4297017;33;20169;-38
2021/03/15 05:03:25;;;;;;;6.53;1.30;;;1.60;39.40;;;;;;4317689;33;20098;-38
2021/03/15 05:05:52;;;;;;;5.67;1.20;;;2.00;39.00;;;;;;4317695;33;20078;-39
2021/03/15 05:08:23;;;;;;;5.83;2.03;;;2.40;38.70;;;;;;4307094;33;20082;-39
2021/03/15 05:10:50;;;;;;;7.60;2.03;;;2.80;37.90;;;;;;4321502;33;20067;-39
2021/03/15 05:13:16;;;;;;;8.87;1.47;;;3.20;37.80;;;;;;4321705;33;20070;-39
2021/03/15 05:15:43;;;;;;;8.67;1.83;;;3.50;36.30;;;;;;4334074;33;20545;-39
2021/03/15 05:18:11;;;;;;;10.30;1.10;;;3.80;35.70;;;;;;4334472;33;20082;-39
2021/03/15 05:20:38;;;;;;;9.47;1.27;;;4.00;34.70;;;;;;4334830;33;20167;-39
2021/03/15 05:23:06;;;;;;;6.43;1.17;;;4.20;34.90;;;;;;4334303;33;20059;-37
2021/03/15 05:25:33;;;;;;;6.23;1.10;;;4.50;33.90;;;;;;4347052;33;20126;-38
2021/03/15 05:28:01;;;;;;;18.37;2.17;;;4.70;34.00;;;;;;4331355;33;20094;-40
2021/03/15 05:30:27;;;;;;;12.73;1.63;;;5.00;34.50;;;;;;4341172;32;20573;-39
2021/03/15 05:32:54;;;;;;;14.90;2.23;;;5.30;34.00;;;;;;4376348;32;20090;-40
2021/03/15 05:35:21;;;;;;;16.07;2.17;;;5.60;34.10;;;;;;4362977;32;20082;-41
2021/03/15 05:37:47;;;;;;;14.77;3.03;;;5.90;33.10;;;;;;4360137;32;20074;-38
2021/03/15 05:40:18;;;;;;;10.40;1.80;;;6.30;32.80;;;;;;4362110;32;20142;-39
2021/03/15 05:43:29;;;;;;;13.00;1.90;;;6.60;31.80;;;;;;4362260;32;20063;-40
2021/03/15 05:46:07;;;;;;;3.07;0.73;;;6.80;31.40;;;;;;4359507;32;20059;-40
2021/03/15 05:49:11;;;;;;;5.33;1.20;;;7.00;30.80;;;;;;4361714;32;20155;-40
2021/03/15 05:51:52;;;;;;;50.40;5.43;;;7.10;30.10;;;;;;4330367;33;20155;-40
2021/03/15 05:54:55;;;;;;;11.83;2.07;;;7.20;29.90;;;;;;4331448;33;20137;-41
2021/03/15 05:58:01;;;;;;;29.90;2.10;;;7.30;30.10;;;;;;4320030;33;20057;-41
2021/03/15 06:01:03;;;;;;;13.57;1.55;;;7.40;29.80;;;;;;4331867;33;20170;-39
2021/03/15 06:03:54;;;;;;;19.50;2.33;;;7.40;29.50;;;;;;4330780;33;20075;-39
2021/03/15 06:06:22;;;;;;;45.27;5.07;;;7.30;29.30;;;;;;4331040;33;20068;-39
2021/03/15 06:08:51;;;;;;;10.57;2.03;;;7.10;29.40;;;;;;4321484;33;20123;-39
2021/03/15 06:11:20;;;;;;;10.83;1.67;;;7.00;29.40;;;;;;4321343;33;20085;-41
2021/03/15 06:13:47;;;;;;;51.77;4.20;;;7.00;29.30;;;;;;4309456;33;20558;-43
2021/03/15 06:16:16;;;;;;;13.73;1.53;;;7.00;29.60;;;;;;4320397;33;20090;-39
2021/03/15 06:18:43;;;;;;;12.83;2.70;;;6.90;29.20;;;;;;4332838;33;20091;-40
2021/03/15 06:21:10;;;;;;;16.60;2.20;;;6.90;29.80;;;;;;4345226;33;20630;-38
2021/03/15 06:23:38;;;;;;;9.33;1.80;;;7.10;29.80;;;;;;4346826;33;20055;-39
2021/03/15 06:26:05;;;;;;;24.00;2.17;;;7.30;29.30;;;;;;4346989;33;20077;-39
2021/03/15 06:28:32;;;;;;;11.70;1.80;;;7.40;29.20;;;;;;4340965;32;20075;-39
2021/03/15 06:30:58;;;;;;;11.47;1.50;;;7.60;29.00;;;;;;4373364;32;20066;-39
2021/03/15 06:33:26;;;;;;;9.43;0.90;;;7.90;28.80;;;;;;4382740;32;20514;-40
2021/03/15 06:36:04;;;;;;;11.17;1.20;;;8.10;28.00;;;;;;4356950;32;20078;-39
2021/03/15 06:38:32;;;;;;;8.87;1.23;;;8.10;28.00;;;;;;4382086;32;20096;-38
2021/03/15 06:41:00;;;;;;;9.73;1.47;;;8.10;28.10;;;;;;4395061;32;20098;-38
2021/03/15 06:43:26;;;;;;;14.93;1.90;;;8.00;27.80;;;;;;4396251;32;20073;-37
2021/03/15 06:45:54;;;;;;;19.37;2.83;;;7.90;27.70;;;;;;4395707;32;20231;-38
2021/03/15 06:48:20;;;;;;;16.13;1.87;;;7.80;28.00;;;;;;4381735;32;20066;-38
2021/03/15 06:50:48;;;;;;;23.60;3.37;;;7.70;28.00;;;;;;4379949;32;20073;-36
2021/03/15 06:53:14;;;;;;;17.37;1.80;;;7.50;28.20;;;;;;4392281;32;20083;-38
2021/03/15 06:55:48;;;;;;;8.73;1.70;;;7.40;28.50;;;;;;4392431;32;20050;-38
2021/03/15 06:58:18;;;;;;;16.87;1.97;;;7.40;28.80;;;;;;4379219;32;20062;-37
2021/03/15 07:00:45;;;;;;;9.63;2.67;;;7.40;28.80;;;;;;4359518;32;20093;-38
2021/03/15 07:03:21;;;;;;;5.30;1.43;;;7.40;28.60;;;;;;4359931;32;20061;-38
2021/03/15 07:05:57;;;;;;;5.67;1.13;;;7.60;28.50;;;;;;4347719;32;20094;-38
2021/03/15 07:08:24;;;;;;;14.63;1.47;;;7.70;28.60;;;;;;4362089;32;20055;-38
2021/03/15 07:10:56;;;;;;;8.90;1.50;;;7.80;28.50;;;;;;4351098;32;20196;-38
2021/03/15 07:13:33;;;;;;;1.67;0.73;;;8.00;28.30;;;;;;4363900;32;20142;-37
2021/03/15 07:16:00;;;;;;;6.13;1.33;;;8.10;28.10;;;;;;4376117;32;20530;-38
2021/03/15 07:18:32;;;;;;;5.50;1.00;;;8.30;28.10;;;;;;4375889;32;20050;-40
2021/03/15 07:21:01;;;;;;;5.97;0.80;;;8.40;27.70;;;;;;4364825;32;20505;-39
2021/03/15 07:23:54;;;;;;;5.73;1.50;;;8.60;27.60;;;;;;4351970;32;20066;-40
2021/03/15 07:26:23;;;;;;;7.07;1.03;;;8.70;27.60;;;;;;4365386;32;20086;-39
2021/03/15 07:28:50;;;;;;;4.97;1.63;;;8.80;27.50;;;;;;4363429;32;20116;-39
2021/03/15 07:31:20;;;;;;;7.20;1.03;;;8.80;27.50;;;;;;4380886;32;20054;-39
2021/03/15 07:33:56;;;;;;;4.50;1.23;;;8.70;27.60;;;;;;4393613;32;20072;-39
2021/03/15 07:36:22;;;;;;;;;;;8.70;27.70;;;;;;4393154;32;20054;-39
2021/03/15 07:38:49;;;;;;;9.57;1.50;;;8.80;27.90;;;;;;4379319;32;19949;-39
2021/03/15 07:41:16;;;;;;;3.33;1.27;;;8.80;27.60;;;;;;4390744;32;20066;-39
2021/03/15 07:43:43;;;;;;;5.73;0.70;;;8.80;27.50;;;;;;4390736;32;20073;-38
2021/03/15 07:46:25;;;;;;;6.87;0.90;;;8.70;27.50;;;;;;4390166;32;20081;-37
2021/03/15 07:48:53;;;;;;;4.70;1.20;;;8.60;27.50;;;;;;4389609;32;20126;-38
2021/03/15 07:51:30;;;;;;;11.27;1.90;;;8.50;27.60;;;;;;4387700;32;20097;-38
2021/03/15 07:54:04;;;;;;;3.87;1.37;;;8.40;28.00;;;;;;4356328;32;20074;-38
2021/03/15 07:56:30;;;;;;;4.13;1.03;;;8.10;27.80;;;;;;4356525;32;20054;-39
2021/03/15 07:58:57;;;;;;;6.03;1.60;;;7.80;28.30;;;;;;4356459;32;20086;-36
2021/03/15 08:01:24;;;;;;;5.90;1.93;;;7.50;28.80;;;;;;4344156;32;20094;-36
2021/03/15 08:03:51;;;;;;;10.30;1.83;;;7.30;28.90;;;;;;4344480;32;20062;-36
2021/03/15 08:06:19;;;;;;;6.43;3.03;;;6.90;29.30;;;;;;4356981;32;20074;-38
2021/03/15 08:08:45;;;;;;;4.83;1.70;;;6.70;29.70;;;;;;4344442;32;20055;-36
2021/03/15 08:11:13;;;;;;;6.43;2.10;;;6.40;29.80;;;;;;4344049;32;20580;-36
2021/03/15 08:13:46;;;;;;;8.10;1.53;;;6.00;30.20;;;;;;4356105;32;20070;-35
2021/03/15 08:16:14;;;;;;;5.53;1.53;;;5.80;31.20;;;;;;4316954;33;20066;-36
2021/03/15 08:18:43;;;;;;;4.33;1.57;;;5.60;31.30;;;;;;4332275;33;20070;-38
2021/03/15 08:21:18;;;;;;;3.43;1.33;;;5.30;31.80;;;;;;4331839;33;20177;-38
2021/03/15 08:23:46;;;;;;;10.90;1.92;;;5.10;32.50;;;;;;4345044;32;20070;-38
2021/03/15 08:26:14;;;;;;;10.67;2.10;;;4.90;32.60;;;;;;4389154;32;20128;-35
2021/03/15 08:28:42;;;;;;;6.87;1.87;;;4.80;32.80;;;;;;4363597;32;20109;-37
2021/03/15 08:31:29;;;;;;;4.97;1.37;;;4.80;33.20;;;;;;4376427;32;20620;-36
2021/03/15 08:33:56;;;;;;;11.90;1.10;;;4.80;33.50;;;;;;4389033;32;20157;-37
2021/03/15 08:36:23;;;;;;;5.10;1.50;;;4.80;33.70;;;;;;4376641;32;20062;-37
2021/03/15 08:38:49;;;;;;;6.33;1.07;;;4.90;34.00;;;;;;4388912;32;20080;-38
2021/03/15 08:41:22;;;;;;;7.07;1.40;;;5.00;33.90;;;;;;4376777;32;20095;-37
2021/03/15 08:43:50;;;;;;;2.60;1.47;;;5.10;33.90;;;;;;4376583;32;20170;-38
2021/03/15 08:46:34;;;;;;;3.47;1.43;;;5.20;33.80;;;;;;4376404;32;20080;-37
2021/03/15 08:49:05;;;;;;;3.77;1.53;;;5.20;33.60;;;;;;4376787;32;20064;-37
2021/03/15 08:51:34;;;;;;;3.77;1.10;;;5.30;33.40;;;;;;4376691;32;20265;-41
2021/03/15 08:54:02;;;;;;;5.50;1.37;;;5.30;33.40;;;;;;4384643;32;20080;-39
2021/03/15 08:56:29;;;;;;;10.80;1.63;;;5.40;33.80;;;;;;4365723;32;20069;-36
2021/03/15 08:58:57;;;;;;;4.23;1.80;;;5.40;33.80;;;;;;4390154;32;20085;-39
2021/03/15 09:01:25;;;;;;;4.80;2.10;;;5.50;33.60;;;;;;4390421;32;20060;-38
2021/03/15 09:03:52;;;;;;;4.00;2.30;;;5.60;33.50;;;;;;4390188;32;20099;-38
2021/03/15 09:06:37;;;;;;;11.63;2.70;;;5.60;33.00;;;;;;4390243;32;20078;-36
2021/03/15 09:09:14;;;;;;;6.10;2.15;;;5.60;33.60;;;;;;4397119;32;20056;-37
2021/03/15 09:11:41;;;;;;;5.60;2.60;;;5.60;33.80;;;;;;4406410;32;20080;-36
2021/03/15 09:14:17;;;;;;;4.40;2.70;;;5.70;34.00;;;;;;4392682;32;20058;-38
2021/03/15 09:16:56;;;;;;;4.27;1.77;;;5.70;34.20;;;;;;4406741;32;20050;-38
2021/03/15 09:19:34;;;;;;;4.13;1.53;;;5.80;34.30;;;;;;4406585;32;20097;-37
2021/03/15 09:22:30;;;;;;;3.97;1.70;;;5.90;34.30;;;;;;4392965;32;20046;-37
2021/03/15 09:25:16;;;;;;;2.60;1.83;;;6.10;33.90;;;;;;4405228;32;20145;-38
2021/03/15 09:27:50;;;;;;;6.30;2.40;;;6.20;33.20;;;;;;4406891;32;20065;-37
2021/03/15 09:30:35;;;;;;;4.80;2.40;;;6.30;33.30;;;;;;4380871;32;20230;-37
2021/03/15 09:33:02;;;;;;;3.72;2.25;;;6.40;33.10;;;;;;4407183;32;20081;-37
2021/03/15 09:35:40;;;;;;;6.80;2.17;;;6.50;33.10;;;;;;4392118;32;20164;-38
2021/03/15 09:38:12;;;;;;;6.33;2.20;;;6.60;32.90;;;;;;4406745;32;20066;-39
2021/03/15 09:40:40;;;;;;;3.87;1.90;;;6.60;32.40;;;;;;4406677;32;20062;-39
2021/03/15 09:43:07;;;;;;;6.10;2.37;;;6.70;32.10;;;;;;4392720;32;20524;-38
2021/03/15 09:45:39;;;;;;;9.90;2.07;;;6.80;32.30;;;;;;4392006;32;20468;-36
2021/03/15 09:48:18;;;;;;;8.37;2.87;;;6.90;32.70;;;;;;4392491;32;20081;-41
2021/03/15 09:50:52;;;;;;;4.80;2.30;;;6.90;32.70;;;;;;4391958;32;20184;-36
2021/03/15 09:53:19;;;;;;;7.47;4.07;;;6.90;32.50;;;;;;4392250;32;20085;-39
2021/03/15 09:55:46;;;;;;;4.13;2.43;;;6.90;32.80;;;;;;4392305;32;20096;-38
2021/03/15 09:58:20;;;;;;;8.87;3.80;;;6.80;32.30;;;;;;4392084;32;20060;-38
2021/03/15 10:00:47;;;;;;;4.57;2.40;;;6.80;32.10;;;;;;4392614;32;20085;-36
2021/03/15 10:03:24;;;;;;;7.60;3.23;;;6.70;32.50;;;;;;4405808;32;20513;-38
2021/03/15 10:05:55;;;;;;;4.37;2.67;;;6.50;32.70;;;;;;4391781;32;20070;-37
2021/03/15 10:08:23;;;;;;;6.37;3.40;;;6.40;33.20;;;;;;4365407;32;20068;-37
2021/03/15 10:10:50;;;;;;;7.73;2.63;;;6.30;33.30;;;;;;4391104;32;20156;-38
2021/03/15 10:13:17;;;;;;;7.13;3.17;;;6.20;33.30;;;;;;4376730;32;20066;-37
2021/03/15 10:15:46;;;;;;;4.37;2.80;;;6.10;33.30;;;;;;4389025;32;20074;-38
2021/03/15 10:18:20;;;;;;;2.97;1.83;;;6.10;33.60;;;;;;4390708;32;20138;-38
2021/03/15 10:20:48;;;;;;;6.00;2.23;;;6.10;33.90;;;;;;4376629;32;20069;-38
2021/03/15 10:23:19;;;;;;;3.43;1.80;;;6.20;33.50;;;;;;4344918;32;20531;-39
2021/03/15 10:25:59;;;;;;;12.90;2.47;;;6.30;33.70;;;;;;4333347;32;20584;-39
2021/03/15 10:28:27;;;;;;;4.90;2.63;;;6.50;33.60;;;;;;4357587;32;20152;-41
2021/03/15 10:30:53;;;;;;;4.90;2.30;;;6.70;33.30;;;;;;4357698;32;20078;-38
2021/03/15 10:33:21;;;;;;;4.97;1.40;;;6.80;33.00;;;;;;4345340;32;20194;-38
2021/03/15 10:35:52;;;;;;;2.93;2.00;;;6.90;33.10;;;;;;4333180;32;20109;-36
2021/03/15 10:38:21;;;;;;;8.00;2.23;;;7.10;32.40;;;;;;4333421;32;20101;-37
2021/03/15 10:40:49;;;;;;;8.53;2.73;;;7.20;32.20;;;;;;4313294;33;20110;-38
2021/03/15 10:43:25;;;;;;;8.07;3.67;;;7.30;31.80;;;;;;4289765;33;20598;-38
2021/03/15 10:45:51;;;;;;;2.27;1.27;;;7.40;31.70;;;;;;4302178;33;20484;-38
2021/03/15 10:48:20;;;;;;;10.13;3.30;;;7.40;31.60;;;;;;4301855;33;20067;-39
2021/03/15 10:50:47;;;;;;;4.40;1.77;;;7.40;31.50;;;;;;4302110;33;20499;-39
2021/03/15 10:53:23;;;;;;;4.70;2.50;;;7.40;31.30;;;;;;4316291;32;20610;-37
2021/03/15 10:55:50;;;;;;;11.93;2.97;;;7.40;31.10;;;;;;4357952;32;20158;-38
2021/03/15 10:58:20;;;;;;;5.80;2.53;;;7.50;31.00;;;;;;4357593;32;20078;-37
2021/03/15 11:00:49;;;;;;;3.80;2.73;;;7.50;31.70;;;;;;4328015;33;20071;-39
2021/03/15 11:03:26;;;;;;;3.10;1.33;;;7.60;31.00;;;;;;4315871;33;20148;-38
2021/03/15 11:06:15;;;;;;;5.37;1.83;;;7.60;30.50;;;;;;4328649;33;20067;-39
2021/03/15 11:08:58;;;;;;;2.47;1.10;;;7.70;30.70;;;;;;4322434;33;20159;-37
2021/03/15 11:11:27;;;;;;;2.97;1.20;;;7.80;31.40;;;;;;4335312;32;20074;-39
2021/03/15 11:13:58;;;;;;;2.07;1.43;;;8.00;30.30;;;;;;4345877;32;20483;-37
2021/03/15 11:16:30;;;;;;;3.27;1.00;;;8.00;30.40;;;;;;4357630;32;20073;-38
2021/03/15 11:19:05;;;;;;;4.17;1.57;;;7.90;30.30;;;;;;4357623;32;20128;-37
2021/03/15 11:21:33;;;;;;;2.33;0.90;;;7.90;30.60;;;;;;4345668;32;20072;-37
2021/03/15 11:23:59;;;;;;;7.27;1.13;;;8.00;30.40;;;;;;4345454;32;20183;-40
2021/03/15 11:26:26;;;;;;;3.33;1.20;;;8.00;30.70;;;;;;4345292;32;20542;-37
2021/03/15 11:28:57;;;;;;;3.40;1.07;;;7.90;30.50;;;;;;4327722;33;20211;-37
2021/03/15 11:31:29;;;;;;;4.13;0.83;;;7.80;30.60;;;;;;4315685;33;20208;-37
2021/03/15 11:34:02;;;;;;;1.60;0.80;;;7.70;30.80;;;;;;4315269;33;20527;-40
2021/03/15 11:36:33;;;;;;;7.47;0.80;;;7.60;30.90;;;;;;4315027;33;20177;-38
2021/03/15 11:39:04;;;;;;;6.77;1.10;;;7.50;30.90;;;;;;4351249;32;20069;-37
2021/03/15 11:41:32;;;;;;;3.43;1.23;;;7.40;31.10;;;;;;4332640;32;20062;-37
2021/03/15 11:44:00;;;;;;;4.00;1.10;;;7.30;31.10;;;;;;4319932;32;20584;-38
2021/03/15 11:46:27;;;;;;;4.43;0.80;;;7.20;31.00;;;;;;4356689;32;20066;-37
2021/03/15 11:48:54;;;;;;;3.63;1.00;;;7.10;31.20;;;;;;4356354;32;20071;-38
2021/03/15 11:51:21;;;;;;;5.10;0.90;;;6.90;31.30;;;;;;4332311;32;20150;-39
2021/03/15 11:53:47;;;;;;;3.50;0.90;;;6.80;31.50;;;;;;4356821;32;20619;-38
2021/03/15 11:56:14;;;;;;;3.37;0.90;;;6.60;31.40;;;;;;4356463;32;20078;-39
2021/03/15 11:58:41;;;;;;;4.37;0.80;;;6.50;32.00;;;;;;4344249;32;20482;-37
2021/03/15 12:01:08;;;;;;;3.57;0.80;;;6.40;32.10;;;;;;4356420;32;20074;-41
2021/03/15 12:03:35;;;;;;;3.20;1.00;;;6.30;32.50;;;;;;4344143;32;20102;-38
2021/03/15 12:06:02;;;;;;;6.47;1.10;;;6.20;32.60;;;;;;4355317;32;20518;-38
2021/03/15 12:08:29;;;;;;;2.53;1.00;;;6.20;33.00;;;;;;4387244;32;20105;-37
2021/03/15 12:10:57;;;;;;;4.90;1.00;;;6.20;32.90;;;;;;4389130;32;20689;-38
2021/03/15 12:13:24;;;;;;;2.53;0.70;;;6.10;32.90;;;;;;4387280;32;20057;-38
2021/03/15 12:15:51;;;;;;;2.30;0.93;;;6.10;32.70;;;;;;4362130;32;20061;-37
2021/03/15 12:18:17;;;;;;;2.83;0.70;;;6.00;32.80;;;;;;4375118;32;20070;-41
2021/03/15 12:20:44;;;;;;;2.90;0.90;;;6.00;33.00;;;;;;4375490;32;20219;-39
2021/03/15 12:23:11;;;;;;;8.33;0.97;;;5.90;32.80;;;;;;4374891;32;20054;-37
2021/03/15 12:25:39;;;;;;;3.07;1.00;;;5.80;32.80;;;;;;4374519;32;20101;-37
2021/03/15 12:28:07;;;;;;;4.50;0.97;;;5.70;33.40;;;;;;4387750;32;20062;-38
2021/03/15 12:30:36;;;;;;;7.80;1.20;;;5.70;33.40;;;;;;4387585;32;20085;-39
2021/03/15 12:33:03;;;;;;;2.73;0.97;;;5.80;33.70;;;;;;4375388;32;20070;-38
2021/03/15 12:35:30;;;;;;;5.50;1.10;;;5.90;33.40;;;;;;4388844;32;20528;-38
2021/03/15 12:37:57;;;;;;;6.47;1.20;;;6.00;33.30;;;;;;4374429;32;20050;-39
2021/03/15 12:40:23;;;;;;;4.20;1.27;;;6.10;33.30;;;;;;4389040;32;20501;-39
2021/03/15 12:42:50;;;;;;;3.10;0.90;;;6.20;33.10;;;;;;4387641;32;20176;-36
2021/03/15 12:45:17;;;;;;;3.13;1.30;;;6.30;32.60;;;;;;4388831;32;20057;-38
2021/03/15 12:47:44;;;;;;;2.43;0.87;;;6.30;32.60;;;;;;4387707;32;20057;-36
2021/03/15 12:50:10;;;;;;;2.10;0.83;;;6.40;32.50;;;;;;4375317;32;20086;-36
2021/03/15 12:52:37;;;;;;;3.13;1.00;;;6.40;32.40;;;;;;4374968;32;20158;-37
2021/03/15 12:55:04;;;;;;;2.37;0.97;;;6.40;32.40;;;;;;4386816;32;20061;-38
2021/03/15 12:57:31;;;;;;;3.77;1.10;;;6.40;32.40;;;;;;4388957;32;20212;-36
2021/03/15 12:59:58;;;;;;;5.83;0.90;;;6.30;32.40;;;;;;4388623;32;20086;-38
2021/03/15 13:02:24;;;;;;;2.80;1.00;;;6.30;32.40;;;;;;4387261;32;20060;-37
2021/03/15 13:04:51;;;;;;;4.73;1.33;;;6.30;32.40;;;;;;4388640;32;20154;-37
2021/03/15 13:07:17;;;;;;;6.43;0.80;;;6.30;32.50;;;;;;4389853;32;20062;-37
2021/03/15 13:09:44;;;;;;;3.23;1.07;;;6.20;32.40;;;;;;4391269;32;20069;-36